KTTN

Trenton Mercer Airport

Trenton, New Jersey, USA
KTTN 230520Z 2306/2406 VRB03KT P6SM SKC FM231700 18006KT P6SM SKC FM240200 VRB03KT P6SM SKC
Issued Valid From Valid To
Apr-23 @ 05:20 UTC
(4 hours ago)
Apr-23 @ 06:00 UTC
(3 hours ago)
Apr-24 @ 06:00 UTC
(in 21 hours)
Apr-23 @ 06:00 to Apr-23 @ 17:00
KTTN 230520Z 2306/2406 VRB03KT P6SM SKC
Wind Visibility Clouds
Variable at 3 knots Greater than 6 miles
  • Clear skies
From Apr-23 @ 17:00 to Apr-24 @ 02:00
FM231700 18006KT P6SM SKC
Wind Visibility Clouds
180° at 6 knots Greater than 6 miles
  • Clear skies
From Apr-24 @ 02:00 to Apr-24 @ 06:00
FM240200 VRB03KT P6SM SKC
Wind Visibility Clouds
Variable at 3 knots Greater than 6 miles
  • Clear skies
KTTN 230520Z 2306/2406 VRB03KT P6SM SKC FM231700 18006KT P6SM SKC FM240200 VRB03KT P6SM SKC
Issued Apr-23 @ 05:20 UTC
(4 hours ago)
Valid From Apr-23 @ 06:00 UTC
(3 hours ago)
Valid To Apr-24 @ 06:00 UTC
(in 21 hours)
Apr-23 @ 06:00 - Apr-23 @ 17:00
Wind Visibility
Variable at 3 knots Greater than 6 miles
Clouds
  • Clear skies
From Apr-23 @ 17:00 - Apr-24 @ 02:00
Wind Visibility
180° at 6 knots Greater than 6 miles
Clouds
  • Clear skies
From Apr-24 @ 02:00 - Apr-24 @ 06:00
Wind Visibility
Variable at 3 knots Greater than 6 miles
Clouds
  • Clear skies